Orbital elements of CZ-4B DEB
| Launched | 25 April 2006 |
| Flight ended | – |
| Launch site | Taiyuan Space Center, PRC |
| Owner | People's Republic of China |
| NORAD ID | 29538 |
| Date fetched |
Epoch osculation |
Inc. [°] |
Ecc. | RA asc node [hr] |
Arg Peri. [°] |
Mean anom [°] |
Mean motion [rev/day] |
Abs. mag |
| Date fetched |
Epoch osculation |
Inc. [°] |
Ecc. | RA asc node [hr] |
Arg Peri. [°] |
Mean anom [°] |
Mean motion [rev/day] |
Abs. mag |
| 2026 May 08 17:57 | 2026 May 05 07:36:19 | 98.0654 | 0.00437 | 17.4866 | 227.0793 | 132.6771 | 15.24866 | – |
| 2026 May 07 17:58 | 2026 May 05 07:36:19 | 98.0654 | 0.00437 | 17.4866 | 227.0793 | 132.6771 | 15.24866 | – |
| 2026 May 06 17:57 | 2026 May 05 07:36:19 | 98.0654 | 0.00437 | 17.4866 | 227.0793 | 132.6771 | 15.24866 | – |
| 2026 May 05 17:57 | 2026 May 05 07:36:19 | 98.0654 | 0.00437 | 17.4866 | 227.0793 | 132.6771 | 15.24866 | – |
| 2026 May 04 17:57 | 2026 Apr 30 07:53:24 | 98.0635 | 0.00441 | 17.1288 | 243.6688 | 132.6771 | 15.24866 | – |
| 2026 May 03 17:57 | 2026 Apr 30 07:53:24 | 98.0635 | 0.00441 | 17.1288 | 243.6688 | 132.6771 | 15.24866 | – |
| 2026 May 02 17:57 | 2026 Apr 30 07:53:24 | 98.0635 | 0.00441 | 17.1288 | 243.6688 | 132.6771 | 15.24866 | – |
| 2026 May 01 17:56 | 2026 Apr 30 07:53:24 | 98.0635 | 0.00441 | 17.1288 | 243.6688 | 132.6771 | 15.24866 | – |
| 2026 Apr 30 17:56 | 2026 Apr 30 07:53:24 | 98.0635 | 0.00441 | 17.1288 | 243.6688 | 132.6771 | 15.24866 | – |
| 2026 Apr 29 17:57 | 2026 Apr 23 15:09:24 | 98.0632 | 0.00442 | 16.6489 | 266.0425 | 132.6771 | 15.24866 | – |
| 2026 Apr 28 17:56 | 2026 Apr 23 15:09:24 | 98.0632 | 0.00442 | 16.6489 | 266.0425 | 132.6771 | 15.24866 | – |
| 2026 Apr 27 17:58 | 2026 Apr 23 15:09:24 | 98.0632 | 0.00442 | 16.6489 | 266.0425 | 132.6771 | 15.24866 | – |
| 2026 Apr 26 17:58 | 2026 Apr 23 15:09:24 | 98.0632 | 0.00442 | 16.6489 | 266.0425 | 132.6771 | 15.24866 | – |
| 2026 Apr 25 17:58 | 2026 Apr 23 15:09:24 | 98.0632 | 0.00442 | 16.6489 | 266.0425 | 132.6771 | 15.24866 | – |
| 2026 Apr 24 17:59 | 2026 Apr 23 15:09:24 | 98.0632 | 0.00442 | 16.6489 | 266.0425 | 132.6771 | 15.24866 | – |
| 2026 Apr 23 17:57 | 2026 Apr 19 02:23:33 | 98.0632 | 0.00442 | 16.3244 | 281.7063 | 132.6771 | 15.24866 | – |
| 2026 Apr 22 17:57 | 2026 Apr 19 02:23:33 | 98.0632 | 0.00442 | 16.3244 | 281.7063 | 132.6771 | 15.24866 | – |
| 2026 Apr 21 17:57 | 2026 Apr 19 02:23:33 | 98.0632 | 0.00442 | 16.3244 | 281.7063 | 132.6771 | 15.24866 | – |
| 2026 Apr 20 17:57 | 2026 Apr 19 02:23:33 | 98.0632 | 0.00442 | 16.3244 | 281.7063 | 132.6771 | 15.24866 | – |
| 2026 Apr 19 17:58 | 2026 Apr 19 02:23:33 | 98.0632 | 0.00442 | 16.3244 | 281.7063 | 132.6771 | 15.24866 | – |
| 2026 Apr 18 17:56 | 2026 Apr 13 07:39:03 | 98.0605 | 0.00444 | 15.9107 | 301.8663 | 132.6771 | 15.24866 | – |
| 2026 Apr 16 17:57 | 2026 Apr 13 07:39:03 | 98.0605 | 0.00444 | 15.9107 | 301.8663 | 132.6771 | 15.24866 | – |
| 2026 Apr 14 17:57 | 2026 Apr 13 07:39:03 | 98.0605 | 0.00444 | 15.9107 | 301.8663 | 132.6771 | 15.24866 | – |
| 2026 Apr 13 17:57 | 2026 Apr 13 07:39:03 | 98.0605 | 0.00444 | 15.9107 | 301.8663 | 132.6771 | 15.24866 | – |
| 2026 Apr 12 17:57 | 2026 Apr 08 07:48:27 | 98.0606 | 0.00443 | 15.5534 | 319.3290 | 132.6771 | 15.24866 | – |
| 2026 Apr 11 17:57 | 2026 Apr 08 07:48:27 | 98.0606 | 0.00443 | 15.5534 | 319.3290 | 132.6771 | 15.24866 | – |